createdAt,value
2019-02-22T00:01:34.832Z,23.83
2019-02-22T00:04:02.976Z,26.03
2019-02-22T00:06:31.162Z,23.40
2019-02-22T00:08:59.308Z,24.73
2019-02-22T00:11:27.441Z,24.23
2019-02-22T00:13:55.601Z,25.07
2019-02-22T00:16:23.789Z,24.47
2019-02-22T00:18:51.921Z,25.87
2019-02-22T00:21:20.057Z,24.33
2019-02-22T00:23:48.232Z,26.50
2019-02-22T00:26:16.372Z,25.43
2019-02-22T00:28:44.633Z,25.63
2019-02-22T00:31:12.924Z,27.17
2019-02-22T00:34:00.522Z,26.63
2019-02-22T00:36:28.848Z,25.43
2019-02-22T00:38:56.947Z,24.63
2019-02-22T00:41:25.095Z,25.17
2019-02-22T00:43:53.275Z,24.53
2019-02-22T00:46:21.421Z,25.80
2019-02-22T00:48:50.906Z,25.67
2019-02-22T00:51:19.068Z,26.13
2019-02-22T00:53:47.224Z,31.25
2019-02-22T00:56:15.376Z,25.17
2019-02-22T00:58:43.540Z,25.50
2019-02-22T01:01:11.688Z,24.10
2019-02-22T01:03:39.836Z,23.50
2019-02-22T01:06:08.015Z,23.87
2019-02-22T01:08:38.225Z,24.80
2019-02-22T01:11:06.383Z,22.53
2019-02-22T01:13:34.557Z,23.80
2019-02-22T01:16:02.859Z,24.63
2019-02-22T01:18:31.830Z,25.83
2019-02-22T01:20:59.936Z,25.43
2019-02-22T01:23:28.085Z,25.40
2019-02-22T01:25:56.594Z,22.57
2019-02-22T01:28:26.019Z,22.23
2019-02-22T01:30:54.157Z,22.27
2019-02-22T01:41:40.683Z,18.97
2019-02-22T01:44:12.072Z,20.40
2019-02-22T01:46:41.816Z,18.67
2019-02-22T01:49:10.333Z,19.73
2019-02-22T01:51:38.476Z,19.07
2019-02-22T01:54:07.510Z,20.73
2019-02-22T01:56:35.676Z,21.67
2019-02-22T01:59:03.993Z,20.47
2019-02-22T02:01:32.268Z,23.47
2019-02-22T02:04:00.444Z,22.07
2019-02-22T02:06:28.589Z,21.57
2019-02-22T02:08:56.728Z,23.00
2019-02-22T02:11:24.901Z,22.37
2019-02-22T02:13:54.580Z,24.93
2019-02-22T02:16:22.720Z,24.17
2019-02-22T02:18:50.897Z,24.23
2019-02-22T02:21:19.071Z,23.77
2019-02-22T02:23:47.178Z,25.37
2019-02-22T02:26:15.352Z,23.40
2019-02-22T02:28:43.493Z,23.73
2019-02-22T02:31:11.646Z,22.33
2019-02-22T02:33:39.853Z,24.83
2019-02-22T02:36:07.969Z,25.50
2019-02-22T02:38:36.111Z,24.73
2019-02-22T02:41:09.831Z,24.47
2019-02-22T02:43:34.066Z,24.63
2019-02-22T02:46:02.223Z,23.57
2019-02-22T02:48:30.526Z,23.90
2019-02-22T02:50:58.656Z,25.30
2019-02-22T02:53:26.866Z,25.43
2019-02-22T02:55:54.980Z,24.97
2019-02-22T02:58:23.124Z,25.70
2019-02-22T03:00:51.261Z,25.33
2019-02-22T03:03:19.537Z,26.77
2019-02-22T03:05:58.083Z,24.77
2019-02-22T03:08:27.901Z,23.83
2019-02-22T03:10:56.336Z,23.73
2019-02-22T03:13:24.484Z,25.90
2019-02-22T03:15:52.676Z,24.33
2019-02-22T03:18:20.809Z,22.50
2019-02-22T03:20:48.957Z,21.43
2019-02-22T03:23:17.605Z,21.97
2019-02-22T03:25:45.752Z,21.23
2019-02-22T03:28:13.971Z,19.63
2019-02-22T03:30:42.160Z,20.87
2019-02-22T03:33:10.292Z,22.73
2019-02-22T03:35:38.425Z,20.60
2019-02-22T03:38:06.598Z,21.73
2019-02-22T03:40:34.747Z,24.63
2019-02-22T03:43:03.020Z,25.03
2019-02-22T03:45:31.185Z,27.63
2019-02-22T03:47:59.462Z,27.23
2019-02-22T03:50:27.607Z,26.83
2019-02-22T03:53:00.210Z,27.17
2019-02-22T03:55:28.352Z,28.43
2019-02-22T03:57:56.909Z,28.77
2019-02-22T04:00:25.074Z,31.57
2019-02-22T04:02:53.235Z,31.87
2019-02-22T04:05:24.287Z,29.70
2019-02-22T04:07:52.478Z,30.30
2019-02-22T04:10:20.615Z,30.53
2019-02-22T04:12:48.756Z,29.47
2019-02-22T04:15:16.935Z,28.57
2019-02-22T04:17:46.332Z,31.33
2019-02-22T04:20:14.472Z,28.37
2019-02-22T04:22:44.460Z,29.77
2019-02-22T04:25:13.607Z,27.97
2019-02-22T04:27:41.753Z,29.20
2019-02-22T04:30:10.296Z,26.00
2019-02-22T04:32:38.443Z,25.37
2019-02-22T04:35:06.585Z,24.40
2019-02-22T04:37:34.767Z,23.83
2019-02-22T04:40:02.929Z,24.97
2019-02-22T04:42:31.135Z,22.27
2019-02-22T04:45:00.382Z,22.97
2019-02-22T04:47:28.469Z,21.80
2019-02-22T04:49:56.613Z,19.60
2019-02-22T04:52:24.780Z,20.57
2019-02-22T04:54:52.937Z,18.77
2019-02-22T04:57:21.085Z,19.27
2019-02-22T04:59:49.263Z,22.40
2019-02-22T05:02:17.397Z,19.87
2019-02-22T05:04:45.869Z,21.50
2019-02-22T05:07:14.028Z,20.53
2019-02-22T05:09:42.179Z,20.47
2019-02-22T05:12:11.286Z,20.37
2019-02-22T05:14:39.689Z,19.87
2019-02-22T05:17:08.045Z,23.10
2019-02-22T05:19:36.188Z,21.10
2019-02-22T05:22:04.366Z,18.27
2019-02-22T05:24:33.759Z,17.23
2019-02-22T05:27:02.021Z,16.90
2019-02-22T05:29:30.190Z,17.33
2019-02-22T05:31:58.330Z,17.23
2019-02-22T05:34:26.472Z,17.47
2019-02-22T05:36:54.657Z,19.00
2019-02-22T05:39:22.809Z,18.10
2019-02-22T05:41:50.949Z,19.43
2019-02-22T05:44:19.145Z,21.13
2019-02-22T05:46:47.289Z,19.70
2019-02-22T05:49:15.436Z,19.27
2019-02-22T05:51:43.605Z,19.53
2019-02-22T05:54:11.746Z,20.03
2019-02-22T05:56:39.910Z,19.40
2019-02-22T05:59:08.084Z,20.33
2019-02-22T06:01:36.225Z,20.13
2019-02-22T06:04:04.372Z,16.90
2019-02-22T06:06:32.557Z,17.23
2019-02-22T06:09:00.772Z,18.17
2019-02-22T06:11:28.845Z,17.73
2019-02-22T06:13:57.022Z,17.27
2019-02-22T06:16:25.168Z,17.60
2019-02-22T06:18:53.323Z,16.93
2019-02-22T06:21:22.413Z,17.90
2019-02-22T06:23:50.569Z,18.27
2019-02-22T06:26:18.712Z,17.47
2019-02-22T06:28:47.068Z,17.67
2019-02-22T06:31:15.238Z,18.17
2019-02-22T06:33:43.377Z,17.37
2019-02-22T06:36:11.594Z,17.13
2019-02-22T06:38:39.758Z,17.20
2019-02-22T06:41:07.903Z,17.90
2019-02-22T06:43:36.072Z,18.60
2019-02-22T06:46:04.222Z,17.23
2019-02-22T06:48:32.414Z,18.73
2019-02-22T06:51:00.569Z,18.40
2019-02-22T06:53:28.729Z,19.93
2019-02-22T06:55:56.870Z,18.97
2019-02-22T06:58:25.041Z,19.83
2019-02-22T07:00:53.212Z,17.70
2019-02-22T07:03:21.376Z,19.33
2019-02-22T07:05:49.548Z,18.67
2019-02-22T07:08:17.697Z,19.67
2019-02-22T07:10:53.813Z,20.87
2019-02-22T07:13:24.363Z,20.50
2019-02-22T07:15:51.781Z,21.57
2019-02-22T07:18:19.950Z,20.67
2019-02-22T07:20:48.135Z,21.97
2019-02-22T07:23:16.268Z,24.60
2019-02-22T07:25:44.457Z,25.17
2019-02-22T07:28:12.601Z,24.13
2019-02-22T07:30:40.753Z,24.07
2019-02-22T07:33:08.973Z,23.37
2019-02-22T07:35:37.092Z,23.10
2019-02-22T07:38:05.404Z,22.33
2019-02-22T07:40:33.601Z,22.13
2019-02-22T07:43:07.997Z,25.10
2019-02-22T07:45:31.560Z,27.30
2019-02-22T07:48:00.042Z,22.60
2019-02-22T07:50:28.618Z,22.33
2019-02-22T07:52:56.765Z,21.23
2019-02-22T07:55:24.945Z,21.00
2019-02-22T07:57:53.103Z,20.27
2019-02-22T08:00:21.253Z,20.70
2019-02-22T08:02:49.436Z,19.93
2019-02-22T08:05:17.583Z,19.33
2019-02-22T08:07:45.729Z,19.57
2019-02-22T08:10:13.903Z,21.70
2019-02-22T08:12:42.053Z,22.10
2019-02-22T08:15:10.287Z,22.60
2019-02-22T08:17:38.461Z,21.87
2019-02-22T08:20:07.701Z,22.23
2019-02-22T08:22:35.910Z,22.23
2019-02-22T08:25:05.066Z,23.13
2019-02-22T08:27:33.215Z,24.10
2019-02-22T08:30:01.361Z,22.77
2019-02-22T08:32:29.556Z,23.97
2019-02-22T08:34:57.693Z,23.37
2019-02-22T08:37:25.841Z,30.17
2019-02-22T08:39:58.601Z,23.07
2019-02-22T08:42:23.797Z,22.27
2019-02-22T08:44:51.936Z,20.77
2019-02-22T08:47:20.108Z,22.40
2019-02-22T08:49:48.248Z,23.70
2019-02-22T08:52:16.988Z,21.73
2019-02-22T08:54:47.377Z,22.47
2019-02-22T08:57:14.953Z,22.33
2019-02-22T08:59:43.096Z,22.03
2019-02-22T09:02:11.266Z,22.53
2019-02-22T09:04:39.408Z,22.10
2019-02-22T09:07:07.549Z,23.27
2019-02-22T09:09:35.716Z,23.90
2019-02-22T09:12:03.861Z,23.90
2019-02-22T09:14:32.043Z,23.70
2019-02-22T09:17:00.176Z,31.42
2019-02-22T09:19:28.318Z,26.13
2019-02-22T09:21:56.457Z,24.30
2019-02-22T09:24:24.625Z,21.33
2019-02-22T09:26:52.889Z,24.33
2019-02-22T09:29:21.107Z,22.87
2019-02-22T09:31:49.269Z,23.23
2019-02-22T09:34:17.766Z,25.23
2019-02-22T09:36:45.893Z,23.93
2019-02-22T09:39:14.078Z,24.07
2019-02-22T09:41:42.212Z,25.30
2019-02-22T09:44:10.356Z,24.20
2019-02-22T09:46:38.528Z,25.13
2019-02-22T09:49:06.677Z,24.27
2019-02-22T09:51:34.830Z,25.17
2019-02-22T09:54:02.997Z,23.47
2019-02-22T09:56:31.140Z,23.70
2019-02-22T09:58:59.281Z,23.90
2019-02-22T10:01:29.076Z,23.20
2019-02-22T10:03:57.216Z,22.03
2019-02-22T10:06:25.376Z,23.27
2019-02-22T10:08:53.549Z,24.43
2019-02-22T10:11:21.696Z,22.63
2019-02-22T10:13:49.849Z,24.03
2019-02-22T10:16:18.019Z,24.37
2019-02-22T10:18:46.157Z,24.27
2019-02-22T10:21:14.301Z,25.48
2019-02-22T10:23:42.482Z,25.87
2019-02-22T10:26:10.626Z,24.80
2019-02-22T10:28:38.799Z,23.30
2019-02-22T10:31:07.017Z,23.07
2019-02-22T10:33:36.937Z,25.57
2019-02-22T10:36:05.220Z,24.10
2019-02-22T10:38:35.884Z,23.30
2019-02-22T10:41:03.188Z,25.30
2019-02-22T10:43:31.330Z,25.37
2019-02-22T10:45:59.533Z,24.20
2019-02-22T10:48:27.665Z,25.73
2019-02-22T10:50:55.814Z,25.23
2019-02-22T10:53:23.976Z,24.43
2019-02-22T10:55:52.132Z,23.13
2019-02-22T10:58:20.281Z,24.00
2019-02-22T11:00:48.728Z,24.70
2019-02-22T11:03:16.988Z,24.33
2019-02-22T11:05:45.150Z,24.20
2019-02-22T11:08:13.335Z,23.93
2019-02-22T11:10:41.484Z,25.50
2019-02-22T11:13:09.695Z,25.63
2019-02-22T11:15:39.593Z,27.77
2019-02-22T11:18:07.713Z,25.77
2019-02-22T11:20:35.854Z,27.23
2019-02-22T11:23:04.039Z,28.10
2019-02-22T11:25:32.178Z,28.57
2019-02-22T11:28:00.318Z,25.73
2019-02-22T11:30:28.494Z,28.30
2019-02-22T11:32:56.648Z,34.27
2019-02-22T11:35:24.775Z,29.23
2019-02-22T11:37:52.945Z,28.00
2019-02-22T11:40:21.160Z,27.70
2019-02-22T11:42:49.321Z,26.87
2019-02-22T11:45:17.490Z,28.10
2019-02-22T11:47:45.650Z,26.73
2019-02-22T11:50:13.805Z,24.83
2019-02-22T11:52:42.031Z,27.77
2019-02-22T11:55:10.938Z,26.43
2019-02-22T11:57:39.354Z,26.30
2019-02-22T12:00:09.994Z,26.57
2019-02-22T12:02:38.140Z,28.40
2019-02-22T12:05:06.280Z,28.90
2019-02-22T12:07:34.456Z,27.70
2019-02-22T12:10:02.597Z,28.73
2019-02-22T12:12:30.806Z,27.80
2019-02-22T12:14:59.039Z,27.93
2019-02-22T12:17:27.475Z,28.60
2019-02-22T12:19:55.648Z,27.23
2019-02-22T12:22:23.828Z,29.20
2019-02-22T12:24:52.032Z,28.97
2019-02-22T12:27:20.180Z,27.63
2019-02-22T12:29:48.358Z,29.53
2019-02-22T12:32:16.502Z,30.67
2019-02-22T12:34:44.643Z,28.00
2019-02-22T12:37:12.844Z,31.47
2019-02-22T12:39:40.993Z,29.40
2019-02-22T12:42:09.149Z,30.13
2019-02-22T12:44:37.323Z,30.57
2019-02-22T12:47:05.771Z,31.10
2019-02-22T12:49:33.912Z,29.97
2019-02-22T12:52:02.109Z,30.47
2019-02-22T12:54:30.241Z,29.70
2019-02-22T12:57:00.020Z,29.13
2019-02-22T12:59:28.196Z,28.27
2019-02-22T13:01:57.531Z,30.77
2019-02-22T13:04:25.669Z,30.50
2019-02-22T13:06:55.475Z,29.70
2019-02-22T13:09:36.020Z,30.10
2019-02-22T13:11:55.124Z,29.73
2019-02-22T13:14:23.400Z,31.03
2019-02-22T13:16:51.578Z,29.50
2019-02-22T13:19:19.724Z,30.53
2019-02-22T13:21:47.897Z,30.17
2019-02-22T13:24:16.050Z,30.40
2019-02-22T13:26:44.192Z,30.97
2019-02-22T13:29:12.368Z,30.27
2019-02-22T13:31:40.509Z,30.63
2019-02-22T13:34:09.005Z,31.60
2019-02-22T13:36:37.262Z,29.83
2019-02-22T13:39:06.443Z,30.27
2019-02-22T13:41:34.648Z,30.10
2019-02-22T13:44:02.904Z,32.37
2019-02-22T13:46:31.081Z,32.10
2019-02-22T13:48:59.234Z,30.40
2019-02-22T13:51:27.396Z,30.63
2019-02-22T13:53:55.611Z,29.57
2019-02-22T13:56:29.670Z,30.63
2019-02-22T13:58:53.643Z,26.23
2019-02-22T14:01:23.033Z,24.73
2019-02-22T14:03:51.128Z,23.70
2019-02-22T14:06:19.297Z,25.27
2019-02-22T14:08:47.454Z,24.27
2019-02-22T14:11:16.637Z,24.77
2019-02-22T14:13:44.816Z,26.63
2019-02-22T14:16:14.596Z,25.47
2019-02-22T14:18:42.823Z,25.43
2019-02-22T14:21:11.832Z,25.63
2019-02-22T14:23:40.076Z,26.63
2019-02-22T14:26:08.216Z,26.10
2019-02-22T14:28:36.409Z,25.13
2019-02-22T14:31:04.548Z,25.67
2019-02-22T14:33:32.697Z,25.00
2019-02-22T14:36:00.860Z,23.90
2019-02-22T14:38:29.009Z,23.27
2019-02-22T14:40:57.132Z,23.67
2019-02-22T14:43:25.301Z,23.20
2019-02-22T14:45:53.444Z,22.70
2019-02-22T14:48:21.583Z,22.67
2019-02-22T14:50:49.762Z,23.50
2019-02-22T14:53:19.846Z,24.27
2019-02-22T14:55:47.708Z,23.13
2019-02-22T14:58:15.873Z,24.60
2019-02-22T15:00:44.012Z,26.27
2019-02-22T15:03:12.152Z,25.77
2019-02-22T15:05:40.333Z,26.13
2019-02-22T15:08:08.474Z,27.60
2019-02-22T15:10:36.677Z,27.80
2019-02-22T15:13:04.849Z,26.43
2019-02-22T15:15:34.628Z,28.17
2019-02-22T15:18:04.554Z,26.63
2019-02-22T15:20:32.729Z,28.30
2019-02-22T15:23:02.589Z,24.73
2019-02-22T15:25:30.659Z,25.97
2019-02-22T15:27:58.981Z,25.07
2019-02-22T15:30:27.163Z,25.83
2019-02-22T15:32:55.290Z,24.33
2019-02-22T15:35:23.464Z,23.57
2019-02-22T15:37:51.612Z,23.83
2019-02-22T15:40:19.760Z,22.33
2019-02-22T15:42:48.143Z,21.27
2019-02-22T15:45:17.750Z,19.97
2019-02-22T15:47:48.604Z,17.43
2019-02-22T15:50:16.608Z,17.27
2019-02-22T15:52:45.437Z,16.77
2019-02-22T15:55:14.747Z,16.53
2019-02-22T15:57:42.913Z,18.03
2019-02-22T16:00:12.763Z,18.10
2019-02-22T16:02:40.929Z,18.63
2019-02-22T16:05:10.746Z,20.97
2019-02-22T16:07:44.786Z,20.20
2019-02-22T16:10:09.667Z,20.90
2019-02-22T16:12:37.916Z,20.90
2019-02-22T16:15:07.698Z,20.40
2019-02-22T16:17:36.712Z,19.17
2019-02-22T16:20:06.444Z,21.37
2019-02-22T16:22:34.585Z,20.17
2019-02-22T16:25:02.726Z,21.43
2019-02-22T16:27:30.896Z,19.77
2019-02-22T16:29:59.036Z,18.60
2019-02-22T16:32:29.061Z,18.97
2019-02-22T16:34:57.348Z,17.03
2019-02-22T16:37:25.542Z,16.20
2019-02-22T16:39:53.637Z,15.33
2019-02-22T16:42:21.817Z,14.67
2019-02-22T16:44:49.955Z,15.30
2019-02-22T16:47:18.174Z,15.60
2019-02-22T16:49:46.345Z,15.53
2019-02-22T16:52:14.508Z,16.47
2019-02-22T16:54:42.653Z,16.53
2019-02-22T16:57:10.816Z,16.50
2019-02-22T16:59:39.001Z,16.13
2019-02-22T17:02:07.154Z,17.53
2019-02-22T17:04:35.308Z,17.13
2019-02-22T17:07:03.457Z,18.07
2019-02-22T17:09:33.278Z,20.23
2019-02-22T17:12:06.547Z,24.33
2019-02-22T17:14:31.200Z,21.40
2019-02-22T17:16:59.340Z,23.93
2019-02-22T17:19:27.514Z,28.13
2019-02-22T17:21:55.652Z,28.47
2019-02-22T17:24:24.948Z,28.53
2019-02-22T17:26:53.122Z,26.83
2019-02-22T17:29:21.260Z,29.60
2019-02-22T17:31:49.778Z,28.10
2019-02-22T17:34:17.944Z,27.57
2019-02-22T17:36:46.084Z,27.77
2019-02-22T17:39:14.233Z,28.30
2019-02-22T17:41:42.942Z,25.77
2019-02-22T17:44:11.446Z,25.10
2019-02-22T17:46:39.677Z,23.53
2019-02-22T17:49:11.264Z,23.37
2019-02-22T17:51:39.406Z,23.70
2019-02-22T17:54:07.553Z,21.90
2019-02-22T17:56:35.726Z,21.77
2019-02-22T17:59:03.873Z,19.90
2019-02-22T18:01:32.008Z,19.10
2019-02-22T18:04:00.184Z,18.50
2019-02-22T18:06:28.326Z,18.00
2019-02-22T18:08:56.508Z,17.50
2019-02-22T18:11:24.690Z,17.33
2019-02-22T18:13:52.843Z,15.53
2019-02-22T18:16:21.105Z,14.73
2019-02-22T18:18:49.408Z,13.97
2019-02-22T18:21:17.572Z,14.57
2019-02-22T18:23:45.727Z,14.50
2019-02-22T18:26:13.901Z,13.50
2019-02-22T18:28:42.049Z,12.57
2019-02-22T18:31:10.188Z,11.10
2019-02-22T18:33:38.360Z,11.37
2019-02-22T18:36:06.523Z,11.40
2019-02-22T18:38:34.672Z,13.20
2019-02-22T18:41:02.846Z,12.13
2019-02-22T18:43:32.616Z,12.23
2019-02-22T18:46:00.765Z,11.80
2019-02-22T18:48:29.318Z,11.57
2019-02-22T18:50:59.134Z,10.33
2019-02-22T18:53:27.275Z,9.13
2019-02-22T18:55:55.471Z,10.23
2019-02-22T18:58:23.925Z,9.53
2019-02-22T19:00:52.070Z,8.83
2019-02-22T19:03:20.248Z,9.33
2019-02-22T19:05:48.384Z,8.30
2019-02-22T19:08:16.530Z,8.33
2019-02-22T19:10:45.132Z,8.03
2019-02-22T19:13:13.251Z,7.87
2019-02-22T19:15:41.457Z,9.27
2019-02-22T19:18:09.625Z,8.70
2019-02-22T19:20:37.763Z,9.23
2019-02-22T19:23:05.891Z,10.67
2019-02-22T19:25:34.100Z,10.53
2019-02-22T19:28:02.229Z,10.23
2019-02-22T19:30:32.010Z,10.70
2019-02-22T19:33:00.186Z,11.10
2019-02-22T19:35:28.326Z,10.87
2019-02-22T19:37:56.484Z,14.07
2019-02-22T19:40:26.335Z,13.90
2019-02-22T19:42:54.472Z,15.23
2019-02-22T19:45:22.612Z,17.17
2019-02-22T19:47:50.792Z,18.47
2019-02-22T19:50:19.319Z,18.60
2019-02-22T19:52:47.459Z,18.97
2019-02-22T19:55:17.268Z,19.37
2019-02-22T19:57:45.432Z,20.20
2019-02-22T20:00:14.531Z,21.00
2019-02-22T20:02:42.708Z,19.30
2019-02-22T20:05:11.317Z,20.67
2019-02-22T20:07:39.456Z,20.17
2019-02-22T20:10:17.877Z,21.23
2019-02-22T20:12:41.802Z,20.47
2019-02-22T20:15:11.309Z,20.93
2019-02-22T20:17:40.369Z,21.30
2019-02-22T20:20:10.343Z,20.93
2019-02-22T20:22:38.521Z,21.60
2019-02-22T20:25:06.696Z,20.97
2019-02-22T20:27:34.841Z,21.50
2019-02-22T20:30:03.114Z,24.63
2019-02-22T20:32:32.951Z,23.33
2019-02-22T20:35:01.153Z,23.00
2019-02-22T20:37:29.377Z,23.63
2019-02-22T20:39:57.552Z,23.47
2019-02-22T20:42:25.760Z,23.60
2019-02-22T20:44:54.001Z,23.70
2019-02-22T20:47:22.253Z,23.33
2019-02-22T20:49:50.425Z,23.67
2019-02-22T20:52:18.573Z,22.93
2019-02-22T20:54:47.074Z,22.00
2019-02-22T20:57:15.388Z,22.70
2019-02-22T20:59:44.411Z,23.57
2019-02-22T21:02:12.613Z,23.17
2019-02-22T21:04:40.737Z,24.30
2019-02-22T21:07:08.876Z,23.43
2019-02-22T21:09:37.055Z,22.83
2019-02-22T21:12:05.204Z,22.97
2019-02-22T21:14:33.346Z,22.97
2019-02-22T21:17:01.524Z,24.83
2019-02-22T21:19:29.664Z,22.70
2019-02-22T21:21:57.808Z,24.20
2019-02-22T21:24:25.980Z,22.30
2019-02-22T21:26:54.135Z,22.93
2019-02-22T21:29:22.281Z,22.20
2019-02-22T21:31:50.524Z,23.63
2019-02-22T21:34:18.672Z,23.20
2019-02-22T21:36:47.105Z,23.27
2019-02-22T21:39:15.413Z,29.87
2019-02-22T21:41:43.605Z,25.73
2019-02-22T21:44:11.715Z,24.00
2019-02-22T21:46:41.174Z,23.80
2019-02-22T21:49:09.311Z,22.73
2019-02-22T21:51:37.480Z,22.97
2019-02-22T21:54:05.659Z,23.03
2019-02-22T21:56:33.791Z,22.33
2019-02-22T21:59:01.941Z,21.37
2019-02-22T22:01:30.150Z,22.00
2019-02-22T22:03:58.266Z,23.80
2019-02-22T22:06:37.657Z,23.40
2019-02-22T22:09:06.051Z,23.07
2019-02-22T22:11:34.476Z,23.27
2019-02-22T22:14:04.248Z,23.07
2019-02-22T22:16:32.417Z,22.27
2019-02-22T22:19:00.552Z,21.30
2019-02-22T22:21:28.694Z,21.53
2019-02-22T22:23:57.205Z,21.67
2019-02-22T22:26:25.469Z,22.43
2019-02-22T22:28:53.608Z,22.07
2019-02-22T22:31:21.788Z,22.00
2019-02-22T22:33:49.930Z,22.50
2019-02-22T22:36:18.079Z,22.90
2019-02-22T22:38:46.258Z,22.83
2019-02-22T22:41:15.324Z,23.53
2019-02-22T22:43:43.476Z,22.60
2019-02-22T22:46:11.652Z,22.90
2019-02-22T22:48:50.041Z,22.33
2019-02-22T22:51:10.840Z,24.73
2019-02-22T22:53:39.014Z,23.73
2019-02-22T22:56:07.168Z,23.00
2019-02-22T22:58:35.581Z,23.10
2019-02-22T23:01:09.723Z,23.63
2019-02-22T23:03:37.874Z,24.33
2019-02-22T23:06:06.073Z,23.43
2019-02-22T23:08:34.246Z,23.23
2019-02-22T23:11:02.508Z,22.43
2019-02-22T23:13:30.652Z,22.33
2019-02-22T23:15:58.824Z,23.73
2019-02-22T23:18:27.159Z,23.73
2019-02-22T23:20:55.308Z,23.97
2019-02-22T23:23:23.484Z,23.67
2019-02-22T23:25:51.625Z,24.83
2019-02-22T23:28:19.767Z,23.97
2019-02-22T23:30:47.967Z,23.70
2019-02-22T23:33:23.568Z,24.53
2019-02-22T23:35:56.265Z,24.43
2019-02-22T23:38:28.560Z,24.67
2019-02-22T23:40:56.901Z,24.83
2019-02-22T23:43:25.099Z,25.13
2019-02-22T23:45:53.224Z,25.97
2019-02-22T23:48:21.484Z,25.97
2019-02-22T23:50:49.657Z,26.97
2019-02-22T23:53:19.027Z,26.40
2019-02-22T23:55:47.181Z,25.63
2019-02-22T23:58:15.349Z,24.97
